Latest Coastal Weather Observations for Gove Airport

IDD60701

Issued at 11:51 pm CST Tuesday 21 May 2024 (issued every 10 minutes, with the page automatically refreshed every 10 minutes)

About coastal observations | Map of coastal stations | Coastal observations for NT | Marine services | Other Formats
Station Details ID: 014412 Name: GOVE AIRPORT Lat: -12.27 Lon: 136.82 Height: 53.59 m
Data from the previous 72 hours. | See also: Recent months at Gove Airport
Date/Time
CST
Wind Sea
Height
m
Swell Vis
km
Cloud Weather Temp
°C
Press
MSL
hPa
Rain since
9am
mm
Dir  Spd
kts
Gust
kts
Height
m
Period
s
Dir
21/11:30pm ESE 9 13 - - - - 10 - - 25.3 1013.0 0.2
21/11:00pm ESE 9 13 - - - - 10 Partly cloudy - 25.6 1013.2 0.2
21/10:30pm ESE 9 12 - - - - 10 Partly cloudy - 25.3 1013.4 0.2
21/10:00pm ESE 10 13 - - - - 10 Partly cloudy - 25.6 1013.7 0.2
21/09:30pm ESE 10 13 - - - - 10 Partly cloudy - 25.5 1013.4 0.2
21/09:00pm ESE 10 13 - - - - 10 Mostly clear - 25.6 1013.3 0.2
21/08:30pm ESE 11 16 - - - - 10 Partly cloudy - 25.5 1013.3 0.2
21/08:00pm ESE 10 14 - - - - 10 Partly cloudy - 25.9 1013.0 0.2
21/07:30pm ESE 11 14 - - - - 10 Partly cloudy - 25.7 1012.7 0.2
21/07:00pm ESE 10 13 - - - - 10 Partly cloudy - 25.9 1012.5 0.2
21/06:30pm ESE 10 12 - - - - 10 Partly cloudy - 26.1 1012.3 0.2
21/06:00pm ESE 12 16 - - - - 10 Mostly clear - 26.1 1012.1 0.2
21/05:30pm ESE 13 16 - - - - 10 Partly cloudy - 26.7 1011.9 0.2
21/05:00pm ESE 13 20 - - - - 10 Partly cloudy - 26.9 1011.5 0.2
21/04:30pm ESE 12 20 - - - - 10 Partly cloudy - 27.2 1011.2 0.2
21/04:00pm ESE 12 17 - - - - 10 Partly cloudy - 27.2 1011.1 0.2
21/03:30pm ESE 11 16 - - - - 10 Partly cloudy - 26.8 1011.0 0.2
21/03:00pm ESE 18 23 - - - - 10 Cloudy - 27.2 1010.8 0.2
21/02:30pm SE 17 23 - - - - 10 Partly cloudy - 27.3 1010.9 0.2
21/02:00pm SE 17 22 - - - - 10 Partly cloudy - 27.4 1011.3 0.2
21/01:30pm ESE 18 24 - - - - 10 Partly cloudy - 28.0 1011.5 0.2
21/01:00pm ESE 18 24 - - - - 10 Partly cloudy - 28.1 1011.9 0.2
21/12:30pm SE 18 23 - - - - 10 Partly cloudy - 27.8 1012.4 0.2
21/12:00pm ESE 19 25 - - - - 10 Cloudy - 28.3 1012.7 0.2
21/11:30am ESE 19 24 - - - - 10 Partly cloudy - 28.5 1013.0 0.2
21/11:00am ESE 18 24 - - - - 10 Partly cloudy - 29.6 1013.2 0.2
21/10:30am SE 18 23 - - - - 10 Partly cloudy - 28.9 1013.6 0.2
21/10:00am ESE 15 19 - - - - 10 Partly cloudy - 29.4 1013.7 0.2
21/09:30am ESE 15 21 - - - - 10 Partly cloudy - 27.6 1013.7 0.0
21/09:00am ESE 16 21 - - - - 10 Cloudy - 27.7 1013.7 0.2
21/08:30am ESE 13 17 - - - - 10 - - 26.7 1013.4 0.2
21/08:00am ESE 12 17 - - - - 10 - - 26.4 1013.3 0.2
21/07:30am ESE 11 15 - - - - 10 Partly cloudy - 25.3 1013.0 0.2
21/07:00am ESE 10 13 - - - - 10 - - 24.7 1013.0 0.2
21/06:30am SE 10 14 - - - - 10 Partly cloudy - 24.4 1012.6 0.2
21/06:00am SE 9 11 - - - - 10 Mostly cloudy - 24.2 1012.6 0.2
21/05:30am SE 10 14 - - - - 10 Partly cloudy - 24.2 1012.5 0.2
21/05:00am ESE 9 12 - - - - 10 - - 24.1 1012.5 0.2
21/04:30am ESE 13 18 - - - - 10 Partly cloudy - 24.4 1012.2 0.2
21/04:00am SE 15 18 - - - - 10 Partly cloudy - 24.7 1012.4 0.2
21/03:30am ESE 12 18 - - - - 10 Partly cloudy - 24.7 1012.5 0.2
21/03:00am ESE 13 18 - - - - 10 Mostly clear - 24.6 1012.6 0.2
21/02:30am ESE 13 18 - - - - 10 Partly cloudy - 24.6 1012.6 0.2
21/02:00am ESE 15 21 - - - - 10 Partly cloudy - 24.9 1012.8 0.2
21/01:30am SE 16 22 - - - - 10 Partly cloudy - 24.9 1013.1 0.2
21/01:00am ESE 18 23 - - - - 10 Cloudy - 25.4 1013.3 0.2
21/12:30am ESE 17 25 - - - - 10 Partly cloudy - 25.7 1013.4 0.2
21/12:13am ESE 15 25 - - - - 10 Partly cloudy - 25.5 1013.5 0.2
21/12:00am ESE 14 19 - - - - 10 Cloudy - 25.5 1013.6 0.2
 
Date/Time
CST
Wind Sea
Height
m
Swell Vis
km
Cloud Weather Temp
°C
Press
MSL
hPa
Rain since
9am
mm
Dir  Spd
kts
Gust
kts
Height
m
Period
s
Dir
20/11:30pm ESE 15 19 - - - - 10 Partly cloudy - 25.6 1013.7 0.2
20/11:00pm ESE 16 22 - - - - 10 Partly cloudy - 25.7 1013.7 0.2
20/10:30pm ESE 14 19 - - - - 10 Partly cloudy - 25.6 1013.9 0.2
20/10:00pm ESE 11 21 - - - - 10 Partly cloudy - 25.5 1013.9 0.2
20/09:30pm ESE 13 18 - - - - 10 Partly cloudy - 25.4 1014.0 0.2
20/09:00pm ESE 11 16 - - - - 10 Cloudy Rain 24.8 1013.7 0.2
20/08:30pm ESE 9 12 - - - - 10 Partly cloudy - 24.4 1013.5 0.0
20/08:00pm ESE 11 16 - - - - 10 Partly cloudy - 24.6 1013.3 0.0
20/07:30pm SSE 12 16 - - - - 10 Partly cloudy - 26.2 1012.7 0.0
20/07:00pm SE 14 18 - - - - 10 Partly cloudy - 26.2 1012.2 0.0
20/06:30pm SSE 12 17 - - - - 10 Partly cloudy - 26.4 1011.8 0.0
20/06:00pm SE 11 17 - - - - 10 Cloudy - 26.5 1011.5 0.0
20/05:30pm SE 11 15 - - - - 10 Partly cloudy - 26.7 1011.3 0.0
20/05:00pm SE 13 17 - - - - 10 Partly cloudy - 27.1 1010.8 0.0
20/04:30pm SE 13 18 - - - - 10 Partly cloudy - 27.0 1010.5 0.0
20/04:00pm SE 16 22 - - - - 10 Partly cloudy - 28.2 1010.3 0.0
20/03:30pm SE 15 18 - - - - 10 Partly cloudy - 27.8 1010.3 0.0
20/03:00pm SSE 14 18 - - - - 10 Cloudy - 28.0 1010.5 0.0
20/02:30pm SSE 13 17 - - - - 10 Partly cloudy - 28.0 1010.6 0.0
20/02:00pm SE 13 18 - - - - 10 Partly cloudy - 27.5 1010.9 0.0
20/01:30pm SE 15 19 - - - - 10 Cloudy - 27.5 1011.1 0.0
20/01:00pm SE 16 19 - - - - 10 Cloudy - 27.6 1011.3 0.0
20/12:30pm SE 15 22 - - - - 10 Partly cloudy - 28.1 1011.8 0.0
20/12:00pm SE 15 21 - - - - 10 Cloudy - 29.1 1012.1 0.0
20/11:30am SE 19 26 - - - - 10 Partly cloudy - 28.9 1012.3 0.0
20/11:00am ESE 19 24 - - - - 10 Partly cloudy - 28.9 1012.6 0.0
20/10:30am SE 19 25 - - - - 10 Partly cloudy - 27.6 1012.9 0.0
20/10:00am SE 19 26 - - - - 10 Partly cloudy - 28.1 1012.9 0.0
20/09:30am SE 15 21 - - - - 10 Partly cloudy - 28.0 1013.1 0.0
20/09:00am SE 18 23 - - - - 10 Cloudy - 27.4 1013.0 0.0
20/08:30am SE 18 25 - - - - 10 Partly cloudy - 27.5 1012.9 0.0
20/08:00am SE 15 19 - - - - 10 Partly cloudy - 26.8 1012.5 0.0
20/07:30am SE 16 20 - - - - 10 Partly cloudy - 26.0 1012.1 0.0
20/07:00am ESE 12 18 - - - - 10 Partly cloudy - 25.8 1011.7 0.0
20/06:30am SE 14 20 - - - - 10 Partly cloudy - 25.7 1011.4 0.0
20/06:00am SE 12 16 - - - - 10 Mostly cloudy - 25.5 1011.2 0.0
20/05:30am ESE 13 18 - - - - 10 - - 25.4 1010.9 0.0
20/05:00am ESE 15 23 - - - - 10 Partly cloudy - 25.4 1010.6 0.0
20/04:30am ESE 13 19 - - - - 10 Partly cloudy - 25.1 1010.8 0.0
20/04:00am ESE 15 21 - - - - 10 Partly cloudy - 25.4 1010.8 0.0
20/03:30am SE 14 19 - - - - 10 Partly cloudy - 25.1 1010.8 0.0
20/03:00am SE 15 20 - - - - 10 - - 25.3 1010.9 0.0
20/02:30am SE 16 21 - - - - 10 Partly cloudy - 25.3 1011.1 0.0
20/02:00am SE 16 21 - - - - 10 Partly cloudy - 25.5 1011.3 0.0
20/01:30am SE 14 20 - - - - 10 Partly cloudy - 25.5 1011.5 0.0
20/01:00am SE 18 25 - - - - 10 - - 25.6 1011.6 0.0
20/12:30am SE 15 19 - - - - 10 - - 25.6 1012.0 0.0
20/12:00am ESE 15 22 - - - - 10 Mostly clear - 25.6 1012.1 0.0
 
Date/Time
CST
Wind Sea
Height
m
Swell Vis
km
Cloud Weather Temp
°C
Press
MSL
hPa
Rain since
9am
mm
Dir  Spd
kts
Gust
kts
Height
m
Period
s
Dir
19/11:30pm SE 15 21 - - - - 10 Cloudy - 25.7 1012.3 0.0
19/11:00pm SE 15 19 - - - - 10 Partly cloudy - 25.7 1012.5 0.0
19/10:30pm ESE 16 22 - - - - 10 - - 25.9 1012.6 0.0
19/10:00pm ESE 15 21 - - - - 10 Partly cloudy - 26.0 1012.8 0.0
19/09:30pm ESE 14 19 - - - - 10 Partly cloudy - 26.1 1012.8 0.0
19/09:00pm ESE 16 21 - - - - 10 - - 26.3 1012.6 0.0
19/08:30pm ESE 13 18 - - - - 10 Partly cloudy - 26.2 1012.4 0.0
19/08:00pm ESE 15 23 - - - - 10 - - 26.4 1012.1 0.0
19/07:30pm ESE 13 18 - - - - 10 - - 26.4 1011.8 0.0
19/07:00pm ESE 13 19 - - - - 10 - - 26.5 1011.3 0.0
19/06:30pm ESE 12 16 - - - - 10 - - 26.3 1011.1 0.0
19/06:00pm SE 13 18 - - - - 10 - - 26.6 1010.4 0.0
19/05:30pm ESE 13 21 - - - - 10 Partly cloudy - 27.5 1010.1 0.0
19/05:00pm ESE 15 20 - - - - 10 Partly cloudy - 27.6 1009.8 0.0
19/04:30pm ESE 15 20 - - - - 10 Partly cloudy - 28.4 1009.3 0.0
19/04:00pm ESE 15 21 - - - - 10 Partly cloudy - 28.5 1009.0 0.0
19/03:30pm ESE 17 23 - - - - 10 Partly cloudy - 28.7 1008.9 0.0
19/03:00pm ESE 14 20 - - - - 10 Mostly cloudy - 28.4 1008.9 0.0
19/02:30pm ESE 13 18 - - - - 10 Partly cloudy - 28.4 1009.2 0.0
19/02:00pm ESE 13 20 - - - - 10 Partly cloudy - 26.7 1009.4 0.0
19/01:30pm SE 18 24 - - - - 10 Partly cloudy - 27.5 1009.5 0.0
19/01:24pm SE 11 24 - - - - 10 Partly cloudy - 27.7 1009.4 0.0
19/01:00pm ESE 13 17 - - - - 10 Partly cloudy - 26.9 1009.9 0.0
19/12:30pm SE 12 15 - - - - 10 Partly cloudy - 27.8 1010.1 0.0
19/12:00pm ESE 13 18 - - - - 10 Mostly cloudy Showers 26.1 1010.7 0.0
19/11:30am ESE 16 23 - - - - 10 Partly cloudy - 28.8 1010.7 0.0
19/11:00am SE 20 24 - - - - 10 Partly cloudy - 30.0 1010.8 0.0
19/10:30am ESE 18 23 - - - - 10 Partly cloudy - 29.2 1010.9 0.0
19/10:06am SE 15 25 - - - - 10 Partly cloudy - 29.5 1011.1 0.0
19/10:00am SE 18 23 - - - - 10 Partly cloudy - 28.8 1011.1 0.0
19/09:30am ESE 16 22 - - - - 10 Partly cloudy - 29.6 1011.2 0.0
19/09:00am ESE 17 22 - - - - 10 Mostly cloudy - 29.0 1011.1 0.0
19/08:30am ESE 15 20 - - - - 10 Partly cloudy - 28.7 1011.1 0.0
19/08:00am ESE 15 23 - - - - 10 Partly cloudy - 28.2 1010.8 0.0
19/07:30am SE 15 20 - - - - 10 Partly cloudy - 27.6 1010.6 0.0
19/07:00am SE 13 17 - - - - 10 Partly cloudy - 27.0 1010.2 0.0
19/06:30am ESE 12 16 - - - - 10 Partly cloudy - 26.3 1010.0 0.0
19/06:00am SE 13 17 - - - - 10 - - 26.6 1009.7 0.0
19/05:30am SE 14 17 - - - - 10 Partly cloudy - 26.6 1009.5 0.0
19/05:00am SE 13 20 - - - - 10 Partly cloudy - 26.3 1009.3 0.0
19/04:30am SE 14 20 - - - - 10 Partly cloudy - 26.5 1009.3 0.0
19/04:00am SE 15 19 - - - - 10 Partly cloudy - 26.5 1009.2 0.0
19/03:30am SE 14 19 - - - - 10 Partly cloudy - 26.5 1009.1 0.0
19/03:00am SE 15 20 - - - - 10 Mostly clear - 26.0 1009.3 0.0
19/02:30am SE 16 21 - - - - 10 Partly cloudy - 26.1 1009.5 0.0
19/02:00am SE 14 22 - - - - 10 Partly cloudy - 26.0 1009.9 0.0
19/01:30am SE 15 21 - - - - 10 Partly cloudy - 25.9 1010.0 0.0
19/01:00am SE 14 20 - - - - 10 Partly cloudy - 25.8 1010.3 0.0
19/12:30am SE 15 21 - - - - 10 Partly cloudy - 25.9 1010.4 0.0
19/12:00am SE 15 20 - - - - 10 Partly cloudy - 25.8 1010.8 0.0

Other formats

Comma delimited format used in spreadsheet applications
http://www.bom.gov.au/fwo/IDD60701/IDD60701.94150.axf

JavaScript Object Notation format (JSON) in row-major order
http://www.bom.gov.au/fwo/IDD60701/IDD60701.94150.json

Data quality

Most of these data are generated automatically and are frequently updated. Quality checks on data are not normally performed. It is possible for incorrect values to appear. Refer to information at About Latest Weather Observations and please check the disclaimer before using these data.